PWSweather.com
Personal Weather Stations
Station Observations
WD4JKH
Forsyth, GA 31029

Forsyth, GA 31029

Lat: 33.033225, Lon: -83.927995

Elevation: 709

Station Type: Davis Vantage VUE

High Low Average
Temperature 94.7°F34.8°C 71.7°F22.1°C 80.8°F27.1°C
Dew Point 77.9°F25.5°C 70.6°F21.4°C 73.6°F23.1°C
Winds 4.2 mph 6.8 kmh Calm Calm 1.0 mph S1.6 kmh S
Wind Gusts 17.0 mph27.4 kmh -- 4.0 mph6.4 kmh
Humidity 98% 50% 81%
Pressure 30.11 in1019.6 mb 29.99 in1015.6 mb -
Precipitation 2.14 in54.4 mm - -
Hour Temp Dew Point Humidity Winds Wind Gusts Pressure Precip Precip Rate Daily Precip Total
12:04 AM 74.5°F23.6°C 71.7°F22.1°C 91% 5.3 mph W8.5 kmh W 14.0 mph22.5 kmh 30.04 in1017.3 mb 0.09 in2.3 mm 1.35 in34.3 mm 0.09 in2.3 mm
12:09 AM 74.0°F23.3°C 71.5°F21.9°C 92% 3.0 mph WSW4.8 kmh WSW 14.0 mph22.5 kmh 30.03 in1016.9 mb 0.11 in2.8 mm 0.24 in6.1 mm 0.01 in0.3 mm
12:14 AM 73.9°F23.3°C 71.7°F22.1°C 93% 2.2 mph WSW3.5 kmh WSW 14.0 mph22.5 kmh 30.03 in1016.9 mb 0.11 in2.8 mm 0.00 in0.0 mm 0.01 in0.3 mm
12:19 AM 74.1°F23.4°C 71.3°F21.8°C 91% 3.2 mph WSW5.1 kmh WSW 11.0 mph17.7 kmh 30.02 in1016.6 mb 0.11 in2.8 mm 0.00 in0.0 mm 0.01 in0.3 mm
12:24 AM 74.3°F23.5°C 71.2°F21.8°C 90% 2.1 mph WSW3.4 kmh WSW 10.0 mph16.1 kmh 30.02 in1016.6 mb 0.11 in2.8 mm 0.00 in0.0 mm 0.01 in0.3 mm
12:29 AM 74.2°F23.4°C 71.1°F21.7°C 90% 2.0 mph W3.2 kmh W 10.0 mph16.1 kmh 30.03 in1016.9 mb 0.11 in2.8 mm 0.00 in0.0 mm 0.01 in0.3 mm
12:34 AM 74.3°F23.5°C 71.5°F21.9°C 91% 4.1 mph W6.6 kmh W 10.0 mph16.1 kmh 30.02 in1016.6 mb 0.11 in2.8 mm 0.00 in0.0 mm 0.01 in0.3 mm
12:39 AM 74.2°F23.4°C 71.4°F21.9°C 91% 2.8 mph W4.5 kmh W 8.0 mph12.9 kmh 30.02 in1016.6 mb 0.11 in2.8 mm 0.00 in0.0 mm 0.01 in0.3 mm
12:44 AM 74.0°F23.3°C 71.5°F21.9°C 92% 3.7 mph W6.0 kmh W 8.0 mph12.9 kmh 30.02 in1016.6 mb 0.11 in2.8 mm 0.00 in0.0 mm 0.01 in0.3 mm
12:49 AM 73.7°F23.2°C 71.2°F21.8°C 92% 2.6 mph W4.2 kmh W 8.0 mph12.9 kmh 30.02 in1016.6 mb 0.11 in2.8 mm 0.00 in0.0 mm 0.01 in0.3 mm
12:54 AM 73.8°F23.2°C 71.3°F21.8°C 92% 1.5 mph WSW2.4 kmh WSW 8.0 mph12.9 kmh 30.02 in1016.6 mb 0.11 in2.8 mm 0.00 in0.0 mm 0.01 in0.3 mm
12:59 AM 73.7°F23.2°C 71.2°F21.8°C 92% 1.9 mph ESE3.1 kmh ESE 8.0 mph12.9 kmh 30.03 in1016.9 mb 0.08 in2.0 mm 0.00 in0.0 mm 0.01 in0.3 mm
01:04 AM 73.7°F23.2°C 71.5°F21.9°C 93% 1.4 mph SE2.3 kmh SE 8.0 mph12.9 kmh 30.03 in1016.9 mb 0.02 in0.5 mm 0.00 in0.0 mm 0.01 in0.3 mm
01:09 AM 73.5°F23.1°C 71.3°F21.8°C 93% Calm Calm 5.0 mph8.0 kmh 30.03 in1016.9 mb 0.00 in0.0 mm 0.00 in0.0 mm 0.01 in0.3 mm
01:14 AM 73.6°F23.1°C 71.7°F22.1°C 94% 2.4 mph E3.9 kmh E 5.0 mph8.0 kmh 30.03 in1016.9 mb 0.00 in0.0 mm 0.00 in0.0 mm 0.01 in0.3 mm
01:19 AM 73.5°F23.1°C 71.6°F22.0°C 94% 2.2 mph SE3.5 kmh SE 4.0 mph6.4 kmh 30.03 in1016.9 mb 0.00 in0.0 mm 0.00 in0.0 mm 0.01 in0.3 mm
01:23 AM 73.4°F23.0°C 71.9°F22.2°C 95% 1.9 mph SE3.1 kmh SE 4.0 mph6.4 kmh 30.03 in1016.9 mb 0.00 in0.0 mm 0.00 in0.0 mm 0.01 in0.3 mm
01:28 AM 73.3°F22.9°C 71.8°F22.1°C 95% Calm Calm 4.0 mph6.4 kmh 30.03 in1016.9 mb 0.00 in0.0 mm 0.00 in0.0 mm 0.01 in0.3 mm
01:33 AM 73.4°F23.0°C 71.9°F22.2°C 95% 1.0 mph ESE1.6 kmh ESE 4.0 mph6.4 kmh 30.03 in1016.9 mb 0.00 in0.0 mm 0.00 in0.0 mm 0.01 in0.3 mm
01:38 AM 73.3°F22.9°C 71.8°F22.1°C 95% Calm Calm 3.0 mph4.8 kmh 30.03 in1016.9 mb 0.00 in0.0 mm 0.00 in0.0 mm 0.01 in0.3 mm
01:43 AM 73.2°F22.9°C 71.7°F22.1°C 95% Calm Calm 2.0 mph3.2 kmh 30.03 in1016.9 mb 0.00 in0.0 mm 0.00 in0.0 mm 0.01 in0.3 mm
01:48 AM 73.1°F22.8°C 71.6°F22.0°C 95% 1.0 mph WSW1.6 kmh WSW 1.0 mph1.6 kmh 30.03 in1016.9 mb 0.00 in0.0 mm 0.00 in0.0 mm 0.01 in0.3 mm
01:53 AM 73.1°F22.8°C 71.9°F22.2°C 96% Calm Calm 1.0 mph1.6 kmh 30.03 in1016.9 mb 0.00 in0.0 mm 0.00 in0.0 mm 0.01 in0.3 mm
01:58 AM 73.0°F22.8°C 71.8°F22.1°C 96% 1.0 mph WSW1.6 kmh WSW 1.0 mph1.6 kmh 30.03 in1016.9 mb 0.00 in0.0 mm 0.00 in0.0 mm 0.01 in0.3 mm
02:03 AM 73.0°F22.8°C 71.8°F22.1°C 96% 1.0 mph SW1.6 kmh SW 3.0 mph4.8 kmh 30.03 in1016.9 mb 0.00 in0.0 mm 0.00 in0.0 mm 0.01 in0.3 mm
02:08 AM 73.2°F22.9°C 72.0°F22.2°C 96% 1.6 mph SW2.6 kmh SW 3.0 mph4.8 kmh 30.02 in1016.6 mb 0.00 in0.0 mm 0.00 in0.0 mm 0.01 in0.3 mm
02:13 AM 73.2°F22.9°C 72.0°F22.2°C 96% 1.6 mph SW2.6 kmh SW 3.0 mph4.8 kmh 30.03 in1016.9 mb 0.00 in0.0 mm 0.00 in0.0 mm 0.01 in0.3 mm
02:18 AM 73.3°F22.9°C 72.1°F22.3°C 96% 1.1 mph SW1.8 kmh SW 3.0 mph4.8 kmh 30.03 in1016.9 mb 0.00 in0.0 mm 0.00 in0.0 mm 0.01 in0.3 mm
02:23 AM 73.3°F22.9°C 72.1°F22.3°C 96% Calm Calm 3.0 mph4.8 kmh 30.03 in1016.9 mb 0.00 in0.0 mm 0.00 in0.0 mm 0.01 in0.3 mm
02:28 AM 73.3°F22.9°C 72.1°F22.3°C 96% Calm Calm 3.0 mph4.8 kmh 30.03 in1016.9 mb 0.00 in0.0 mm 0.00 in0.0 mm 0.01 in0.3 mm
02:33 AM 73.3°F22.9°C 72.1°F22.3°C 96% Calm Calm 3.0 mph4.8 kmh 30.03 in1016.9 mb 0.00 in0.0 mm 0.00 in0.0 mm 0.01 in0.3 mm
02:38 AM 73.3°F22.9°C 72.1°F22.3°C 96% 1.0 mph SE1.6 kmh SE 2.0 mph3.2 kmh 30.03 in1016.9 mb 0.00 in0.0 mm 0.00 in0.0 mm 0.01 in0.3 mm
02:43 AM 73.3°F22.9°C 72.1°F22.3°C 96% Calm Calm 2.0 mph3.2 kmh 30.03 in1016.9 mb 0.00 in0.0 mm 0.00 in0.0 mm 0.01 in0.3 mm
02:48 AM 73.2°F22.9°C 72.0°F22.2°C 96% Calm Calm 2.0 mph3.2 kmh 30.03 in1016.9 mb 0.00 in0.0 mm 0.00 in0.0 mm 0.01 in0.3 mm
02:53 AM 73.2°F22.9°C 72.0°F22.2°C 96% 1.3 mph WSW2.1 kmh WSW 2.0 mph3.2 kmh 30.02 in1016.6 mb 0.00 in0.0 mm 0.00 in0.0 mm 0.01 in0.3 mm
02:58 AM 73.1°F22.8°C 71.9°F22.2°C 96% 1.1 mph WSW1.8 kmh WSW 2.0 mph3.2 kmh 30.02 in1016.6 mb 0.00 in0.0 mm 0.00 in0.0 mm 0.01 in0.3 mm
03:03 AM 73.1°F22.8°C 71.9°F22.2°C 96% 1.0 mph WSW1.6 kmh WSW 2.0 mph3.2 kmh 30.02 in1016.6 mb 0.00 in0.0 mm 0.00 in0.0 mm 0.01 in0.3 mm
03:08 AM 73.2°F22.9°C 72.0°F22.2°C 96% 1.1 mph SW1.8 kmh SW 2.0 mph3.2 kmh 30.02 in1016.6 mb 0.00 in0.0 mm 0.00 in0.0 mm 0.01 in0.3 mm
03:13 AM 73.2°F22.9°C 72.3°F22.4°C 97% 1.0 mph WSW1.6 kmh WSW 2.0 mph3.2 kmh 30.02 in1016.6 mb 0.00 in0.0 mm 0.00 in0.0 mm 0.01 in0.3 mm
03:18 AM 73.3°F22.9°C 72.4°F22.4°C 97% 1.2 mph SW1.9 kmh SW 2.0 mph3.2 kmh 30.02 in1016.6 mb 0.00 in0.0 mm 0.00 in0.0 mm 0.01 in0.3 mm
03:23 AM 73.3°F22.9°C 72.4°F22.4°C 97% 1.0 mph SW1.6 kmh SW 2.0 mph3.2 kmh 30.02 in1016.6 mb 0.00 in0.0 mm 0.00 in0.0 mm 0.01 in0.3 mm
03:28 AM 73.3°F22.9°C 72.4°F22.4°C 97% 1.0 mph WSW1.6 kmh WSW 2.0 mph3.2 kmh 30.02 in1016.6 mb 0.00 in0.0 mm 0.00 in0.0 mm 0.01 in0.3 mm
03:33 AM 73.3°F22.9°C 72.4°F22.4°C 97% Calm Calm 2.0 mph3.2 kmh 30.01 in1016.3 mb 0.00 in0.0 mm 0.00 in0.0 mm 0.01 in0.3 mm
03:38 AM 73.4°F23.0°C 72.5°F22.5°C 97% Calm Calm 2.0 mph3.2 kmh 30.01 in1016.3 mb 0.00 in0.0 mm 0.00 in0.0 mm 0.01 in0.3 mm
03:43 AM 73.4°F23.0°C 72.5°F22.5°C 97% Calm Calm 2.0 mph3.2 kmh 30.01 in1016.3 mb 0.00 in0.0 mm 0.00 in0.0 mm 0.01 in0.3 mm
03:48 AM 73.4°F23.0°C 72.5°F22.5°C 97% 1.0 mph WSW1.6 kmh WSW 1.0 mph1.6 kmh 30.01 in1016.3 mb 0.00 in0.0 mm 0.00 in0.0 mm 0.01 in0.3 mm
03:53 AM 73.4°F23.0°C 72.5°F22.5°C 97% 1.0 mph WSW1.6 kmh WSW 1.0 mph1.6 kmh 30.01 in1016.3 mb 0.00 in0.0 mm 0.00 in0.0 mm 0.01 in0.3 mm
03:58 AM 73.5°F23.1°C 72.6°F22.6°C 97% 1.0 mph W1.6 kmh W 1.0 mph1.6 kmh 30.01 in1016.3 mb 0.00 in0.0 mm 0.00 in0.0 mm 0.01 in0.3 mm
04:03 AM 73.5°F23.1°C 72.6°F22.6°C 97% Calm Calm 1.0 mph1.6 kmh 30.00 in1015.9 mb 0.00 in0.0 mm 0.00 in0.0 mm 0.01 in0.3 mm
04:08 AM 73.5°F23.1°C 72.6°F22.6°C 97% 1.5 mph WSW2.4 kmh WSW 2.0 mph3.2 kmh 30.01 in1016.3 mb 0.00 in0.0 mm 0.00 in0.0 mm 0.01 in0.3 mm
04:13 AM 73.5°F23.1°C 72.6°F22.6°C 97% Calm Calm 2.0 mph3.2 kmh 30.00 in1015.9 mb 0.00 in0.0 mm 0.00 in0.0 mm 0.01 in0.3 mm
04:18 AM 73.5°F23.1°C 72.6°F22.6°C 97% Calm Calm 2.0 mph3.2 kmh 30.00 in1015.9 mb 0.00 in0.0 mm 0.00 in0.0 mm 0.01 in0.3 mm
04:23 AM 73.4°F23.0°C 72.5°F22.5°C 97% Calm Calm 2.0 mph3.2 kmh 30.00 in1015.9 mb 0.00 in0.0 mm 0.00 in0.0 mm 0.01 in0.3 mm
04:28 AM 73.4°F23.0°C 72.5°F22.5°C 97% Calm Calm -- 30.01 in1016.3 mb 0.00 in0.0 mm 0.00 in0.0 mm 0.01 in0.3 mm
04:33 AM 73.3°F22.9°C 72.4°F22.4°C 97% Calm Calm -- 30.01 in1016.3 mb 0.00 in0.0 mm 0.00 in0.0 mm 0.01 in0.3 mm
04:38 AM 73.3°F22.9°C 72.4°F22.4°C 97% Calm Calm -- 30.01 in1016.3 mb 0.00 in0.0 mm 0.00 in0.0 mm 0.01 in0.3 mm
04:43 AM 73.3°F22.9°C 72.4°F22.4°C 97% Calm Calm -- 30.01 in1016.3 mb 0.01 in0.3 mm 0.12 in3.0 mm 0.02 in0.5 mm
04:48 AM 73.2°F22.9°C 72.3°F22.4°C 97% Calm Calm -- 30.02 in1016.6 mb 0.01 in0.3 mm 0.00 in0.0 mm 0.02 in0.5 mm
04:53 AM 73.2°F22.9°C 72.3°F22.4°C 97% Calm Calm -- 30.02 in1016.6 mb 0.01 in0.3 mm 0.00 in0.0 mm 0.02 in0.5 mm
04:58 AM 73.1°F22.8°C 72.2°F22.3°C 97% Calm Calm -- 30.02 in1016.6 mb 0.01 in0.3 mm 0.00 in0.0 mm 0.02 in0.5 mm
05:03 AM 73.0°F22.8°C 72.1°F22.3°C 97% Calm Calm -- 30.02 in1016.6 mb 0.01 in0.3 mm 0.00 in0.0 mm 0.02 in0.5 mm
05:08 AM 72.9°F22.7°C 72.0°F22.2°C 97% Calm Calm -- 30.02 in1016.6 mb 0.01 in0.3 mm 0.00 in0.0 mm 0.02 in0.5 mm
05:13 AM 72.8°F22.7°C 71.9°F22.2°C 97% Calm Calm -- 30.02 in1016.6 mb 0.01 in0.3 mm 0.00 in0.0 mm 0.02 in0.5 mm
05:18 AM 72.8°F22.7°C 71.9°F22.2°C 97% Calm Calm -- 30.02 in1016.6 mb 0.01 in0.3 mm 0.00 in0.0 mm 0.02 in0.5 mm
05:23 AM 72.6°F22.6°C 71.7°F22.1°C 97% Calm Calm 1.0 mph1.6 kmh 30.02 in1016.6 mb 0.01 in0.3 mm 0.00 in0.0 mm 0.02 in0.5 mm
05:28 AM 72.5°F22.5°C 71.6°F22.0°C 97% 1.1 mph E1.8 kmh E 2.0 mph3.2 kmh 30.03 in1016.9 mb 0.01 in0.3 mm 0.00 in0.0 mm 0.02 in0.5 mm
05:33 AM 72.4°F22.4°C 71.5°F21.9°C 97% 1.0 mph E1.6 kmh E 2.0 mph3.2 kmh 30.02 in1016.6 mb 0.01 in0.3 mm 0.00 in0.0 mm 0.02 in0.5 mm
05:38 AM 72.2°F22.3°C 71.3°F21.8°C 97% 1.7 mph E2.7 kmh E 3.0 mph4.8 kmh 30.02 in1016.6 mb 0.01 in0.3 mm 0.00 in0.0 mm 0.02 in0.5 mm
05:43 AM 72.0°F22.2°C 71.1°F21.7°C 97% 1.0 mph E1.6 kmh E 3.0 mph4.8 kmh 30.02 in1016.6 mb 0.00 in0.0 mm 0.00 in0.0 mm 0.02 in0.5 mm
05:48 AM 71.9°F22.2°C 71.0°F21.7°C 97% 1.0 mph ENE1.6 kmh ENE 3.0 mph4.8 kmh 30.03 in1016.9 mb 0.00 in0.0 mm 0.00 in0.0 mm 0.02 in0.5 mm
05:53 AM 71.8°F22.1°C 70.9°F21.6°C 97% 1.0 mph ENE1.6 kmh ENE 3.0 mph4.8 kmh 30.03 in1016.9 mb 0.00 in0.0 mm 0.00 in0.0 mm 0.02 in0.5 mm
05:58 AM 71.8°F22.1°C 70.9°F21.6°C 97% 1.0 mph ENE1.6 kmh ENE 2.0 mph3.2 kmh 30.03 in1016.9 mb 0.00 in0.0 mm 0.00 in0.0 mm 0.02 in0.5 mm
06:03 AM 71.7°F22.1°C 70.8°F21.6°C 97% 1.0 mph ENE1.6 kmh ENE 2.0 mph3.2 kmh 30.04 in1017.3 mb 0.00 in0.0 mm 0.00 in0.0 mm 0.02 in0.5 mm
06:08 AM 71.7°F22.1°C 70.8°F21.6°C 97% 1.0 mph ENE1.6 kmh ENE 2.0 mph3.2 kmh 30.04 in1017.3 mb 0.00 in0.0 mm 0.00 in0.0 mm 0.02 in0.5 mm
06:13 AM 71.7°F22.1°C 70.8°F21.6°C 97% 1.0 mph ENE1.6 kmh ENE 2.0 mph3.2 kmh 30.04 in1017.3 mb 0.00 in0.0 mm 0.00 in0.0 mm 0.02 in0.5 mm
06:18 AM 71.7°F22.1°C 70.8°F21.6°C 97% 1.4 mph E2.3 kmh E 2.0 mph3.2 kmh 30.05 in1017.6 mb 0.00 in0.0 mm 0.00 in0.0 mm 0.02 in0.5 mm
06:22 AM 71.7°F22.1°C 70.8°F21.6°C 97% Calm Calm 2.0 mph3.2 kmh 30.05 in1017.6 mb 0.00 in0.0 mm 0.00 in0.0 mm 0.02 in0.5 mm
06:27 AM 71.8°F22.1°C 70.9°F21.6°C 97% 1.4 mph ENE2.3 kmh ENE 2.0 mph3.2 kmh 30.05 in1017.6 mb 0.00 in0.0 mm 0.00 in0.0 mm 0.02 in0.5 mm
06:32 AM 71.7°F22.1°C 70.8°F21.6°C 97% 1.0 mph E1.6 kmh E 2.0 mph3.2 kmh 30.05 in1017.6 mb 0.00 in0.0 mm 0.00 in0.0 mm 0.02 in0.5 mm
06:37 AM 71.7°F22.1°C 70.8°F21.6°C 97% 1.4 mph NE2.3 kmh NE 2.0 mph3.2 kmh 30.05 in1017.6 mb 0.00 in0.0 mm 0.00 in0.0 mm 0.02 in0.5 mm
06:42 AM 71.8°F22.1°C 71.2°F21.8°C 98% 1.0 mph ESE1.6 kmh ESE 2.0 mph3.2 kmh 30.05 in1017.6 mb 0.00 in0.0 mm 0.00 in0.0 mm 0.02 in0.5 mm
06:47 AM 71.8°F22.1°C 71.2°F21.8°C 98% 1.5 mph E2.4 kmh E 2.0 mph3.2 kmh 30.06 in1017.9 mb 0.00 in0.0 mm 0.00 in0.0 mm 0.02 in0.5 mm
06:52 AM 71.9°F22.2°C 71.3°F21.8°C 98% Calm Calm 2.0 mph3.2 kmh 30.06 in1017.9 mb 0.00 in0.0 mm 0.00 in0.0 mm 0.02 in0.5 mm
06:57 AM 71.8°F22.1°C 70.9°F21.6°C 97% 1.0 mph ENE1.6 kmh ENE 2.0 mph3.2 kmh 30.06 in1017.9 mb 0.00 in0.0 mm 0.00 in0.0 mm 0.02 in0.5 mm
07:02 AM 71.7°F22.1°C 70.8°F21.6°C 97% 1.9 mph E3.1 kmh E 2.0 mph3.2 kmh 30.06 in1017.9 mb 0.00 in0.0 mm 0.00 in0.0 mm 0.02 in0.5 mm
07:07 AM 71.8°F22.1°C 71.2°F21.8°C 98% 1.0 mph E1.6 kmh E 2.0 mph3.2 kmh 30.06 in1017.9 mb 0.00 in0.0 mm 0.00 in0.0 mm 0.02 in0.5 mm
07:12 AM 71.9°F22.2°C 71.3°F21.8°C 98% Calm Calm 2.0 mph3.2 kmh 30.06 in1017.9 mb 0.00 in0.0 mm 0.00 in0.0 mm 0.02 in0.5 mm
07:17 AM 72.0°F22.2°C 71.4°F21.9°C 98% 1.0 mph ESE1.6 kmh ESE 2.0 mph3.2 kmh 30.07 in1018.3 mb 0.00 in0.0 mm 0.00 in0.0 mm 0.02 in0.5 mm
07:22 AM 72.0°F22.2°C 71.4°F21.9°C 98% 1.3 mph E2.1 kmh E 2.0 mph3.2 kmh 30.07 in1018.3 mb 0.00 in0.0 mm 0.00 in0.0 mm 0.02 in0.5 mm
07:27 AM 72.2°F22.3°C 71.6°F22.0°C 98% 1.0 mph E1.6 kmh E 2.0 mph3.2 kmh 30.07 in1018.3 mb 0.00 in0.0 mm 0.00 in0.0 mm 0.02 in0.5 mm
07:32 AM 72.5°F22.5°C 71.9°F22.2°C 98% 1.3 mph NE2.1 kmh NE 2.0 mph3.2 kmh 30.07 in1018.3 mb 0.00 in0.0 mm 0.00 in0.0 mm 0.02 in0.5 mm
07:37 AM 72.9°F22.7°C 72.3°F22.4°C 98% Calm Calm 2.0 mph3.2 kmh 30.07 in1018.3 mb 0.00 in0.0 mm 0.00 in0.0 mm 0.02 in0.5 mm
07:42 AM 73.0°F22.8°C 72.4°F22.4°C 98% Calm Calm 2.0 mph3.2 kmh 30.08 in1018.6 mb 0.00 in0.0 mm 0.00 in0.0 mm 0.02 in0.5 mm
07:47 AM 73.0°F22.8°C 72.1°F22.3°C 97% Calm Calm 2.0 mph3.2 kmh 30.08 in1018.6 mb 0.00 in0.0 mm 0.00 in0.0 mm 0.02 in0.5 mm
07:52 AM 73.3°F22.9°C 72.4°F22.4°C 97% Calm Calm 1.0 mph1.6 kmh 30.09 in1019.0 mb 0.00 in0.0 mm 0.00 in0.0 mm 0.02 in0.5 mm
07:57 AM 73.6°F23.1°C 72.7°F22.6°C 97% Calm Calm 1.0 mph1.6 kmh 30.09 in1019.0 mb 0.00 in0.0 mm 0.00 in0.0 mm 0.02 in0.5 mm
08:02 AM 73.4°F23.0°C 72.5°F22.5°C 97% Calm Calm 1.0 mph1.6 kmh 30.09 in1019.0 mb 0.00 in0.0 mm 0.00 in0.0 mm 0.02 in0.5 mm
08:07 AM 73.8°F23.2°C 72.9°F22.7°C 97% Calm Calm 1.0 mph1.6 kmh 30.09 in1019.0 mb 0.00 in0.0 mm 0.00 in0.0 mm 0.02 in0.5 mm
08:12 AM 74.2°F23.4°C 73.3°F22.9°C 97% Calm Calm -- 30.09 in1019.0 mb 0.00 in0.0 mm 0.00 in0.0 mm 0.02 in0.5 mm
08:17 AM 74.6°F23.7°C 73.4°F23.0°C 96% Calm Calm 1.0 mph1.6 kmh 30.09 in1019.0 mb 0.00 in0.0 mm 0.00 in0.0 mm 0.02 in0.5 mm
08:22 AM 75.0°F23.9°C 73.4°F23.0°C 95% Calm Calm 1.0 mph1.6 kmh 30.09 in1019.0 mb 0.00 in0.0 mm 0.00 in0.0 mm 0.02 in0.5 mm
08:27 AM 75.3°F24.1°C 73.4°F23.0°C 94% 1.0 mph NE1.6 kmh NE 1.0 mph1.6 kmh 30.09 in1019.0 mb 0.00 in0.0 mm 0.00 in0.0 mm 0.02 in0.5 mm
08:32 AM 75.3°F24.1°C 73.1°F22.8°C 93% Calm Calm 1.0 mph1.6 kmh 30.09 in1019.0 mb 0.00 in0.0 mm 0.00 in0.0 mm 0.02 in0.5 mm
08:37 AM 75.8°F24.3°C 73.6°F23.1°C 93% Calm Calm 1.0 mph1.6 kmh 30.10 in1019.3 mb 0.00 in0.0 mm 0.00 in0.0 mm 0.02 in0.5 mm
08:42 AM 76.1°F24.5°C 73.6°F23.1°C 92% 1.0 mph NW1.6 kmh NW 1.0 mph1.6 kmh 30.10 in1019.3 mb 0.00 in0.0 mm 0.00 in0.0 mm 0.02 in0.5 mm
08:47 AM 76.5°F24.7°C 73.7°F23.2°C 91% Calm Calm 1.0 mph1.6 kmh 30.10 in1019.3 mb 0.00 in0.0 mm 0.00 in0.0 mm 0.02 in0.5 mm
08:52 AM 77.0°F25.0°C 74.2°F23.4°C 91% Calm Calm 1.0 mph1.6 kmh 30.10 in1019.3 mb 0.00 in0.0 mm 0.00 in0.0 mm 0.02 in0.5 mm
08:57 AM 77.2°F25.1°C 74.0°F23.3°C 90% Calm Calm 1.0 mph1.6 kmh 30.10 in1019.3 mb 0.00 in0.0 mm 0.00 in0.0 mm 0.02 in0.5 mm
09:02 AM 77.6°F25.3°C 74.4°F23.6°C 90% Calm Calm 1.0 mph1.6 kmh 30.10 in1019.3 mb 0.00 in0.0 mm 0.00 in0.0 mm 0.02 in0.5 mm
09:07 AM 78.0°F25.6°C 74.5°F23.6°C 89% 1.0 mph ESE1.6 kmh ESE 1.0 mph1.6 kmh 30.10 in1019.3 mb 0.00 in0.0 mm 0.00 in0.0 mm 0.02 in0.5 mm
09:12 AM 78.4°F25.8°C 74.9°F23.8°C 89% Calm Calm 1.0 mph1.6 kmh 30.10 in1019.3 mb 0.00 in0.0 mm 0.00 in0.0 mm 0.02 in0.5 mm
09:17 AM 79.0°F26.1°C 74.8°F23.8°C 87% Calm Calm 1.0 mph1.6 kmh 30.10 in1019.3 mb 0.00 in0.0 mm 0.00 in0.0 mm 0.02 in0.5 mm
09:22 AM 79.4°F26.3°C 75.2°F24.0°C 87% Calm Calm 1.0 mph1.6 kmh 30.10 in1019.3 mb 0.00 in0.0 mm 0.00 in0.0 mm 0.02 in0.5 mm
09:27 AM 79.7°F26.5°C 75.5°F24.2°C 87% Calm Calm 1.0 mph1.6 kmh 30.10 in1019.3 mb 0.00 in0.0 mm 0.00 in0.0 mm 0.02 in0.5 mm
09:32 AM 80.1°F26.7°C 75.6°F24.2°C 86% 1.0 mph NE1.6 kmh NE 1.0 mph1.6 kmh 30.10 in1019.3 mb 0.00 in0.0 mm 0.00 in0.0 mm 0.02 in0.5 mm
09:37 AM 80.1°F26.7°C 75.6°F24.2°C 86% 1.3 mph ENE2.1 kmh ENE 3.0 mph4.8 kmh 30.10 in1019.3 mb 0.00 in0.0 mm 0.00 in0.0 mm 0.02 in0.5 mm
09:42 AM 79.7°F26.5°C 75.5°F24.2°C 87% 1.0 mph N1.6 kmh N 3.0 mph4.8 kmh 30.09 in1019.0 mb 0.00 in0.0 mm 0.00 in0.0 mm 0.02 in0.5 mm
09:47 AM 79.8°F26.6°C 75.3°F24.1°C 86% 1.0 mph NNW1.6 kmh NNW 3.0 mph4.8 kmh 30.10 in1019.3 mb 0.00 in0.0 mm 0.00 in0.0 mm 0.02 in0.5 mm
09:52 AM 80.2°F26.8°C 76.0°F24.4°C 87% 1.7 mph NE2.7 kmh NE 3.0 mph4.8 kmh 30.10 in1019.3 mb 0.00 in0.0 mm 0.00 in0.0 mm 0.02 in0.5 mm
09:57 AM 80.5°F26.9°C 76.3°F24.6°C 87% Calm Calm 2.0 mph3.2 kmh 30.10 in1019.3 mb 0.00 in0.0 mm 0.00 in0.0 mm 0.02 in0.5 mm
10:02 AM 81.2°F27.3°C 76.3°F24.6°C 85% 1.3 mph NNE2.1 kmh NNE 2.0 mph3.2 kmh 30.09 in1019.0 mb 0.00 in0.0 mm 0.00 in0.0 mm 0.02 in0.5 mm
10:07 AM 81.4°F27.4°C 76.1°F24.5°C 84% Calm Calm 2.0 mph3.2 kmh 30.09 in1019.0 mb 0.00 in0.0 mm 0.00 in0.0 mm 0.02 in0.5 mm
10:12 AM 81.9°F27.7°C 77.3°F25.2°C 86% 1.0 mph W1.6 kmh W 2.0 mph3.2 kmh 30.09 in1019.0 mb 0.00 in0.0 mm 0.00 in0.0 mm 0.02 in0.5 mm
10:17 AM 82.6°F28.1°C 77.3°F25.2°C 84% 1.0 mph ENE1.6 kmh ENE 2.0 mph3.2 kmh 30.09 in1019.0 mb 0.00 in0.0 mm 0.00 in0.0 mm 0.02 in0.5 mm
10:22 AM 82.4°F28.0°C 76.7°F24.8°C 83% 1.0 mph E1.6 kmh E 1.0 mph1.6 kmh 30.09 in1019.0 mb 0.00 in0.0 mm 0.00 in0.0 mm 0.02 in0.5 mm
10:27 AM 82.2°F27.9°C 75.9°F24.4°C 81% 1.0 mph NW1.6 kmh NW 2.0 mph3.2 kmh 30.09 in1019.0 mb 0.00 in0.0 mm 0.00 in0.0 mm 0.02 in0.5 mm
10:32 AM 82.8°F28.2°C 76.1°F24.5°C 80% 1.0 mph N1.6 kmh N 2.0 mph3.2 kmh 30.09 in1019.0 mb 0.00 in0.0 mm 0.00 in0.0 mm 0.02 in0.5 mm
10:37 AM 83.4°F28.6°C 76.6°F24.8°C 80% Calm Calm 2.0 mph3.2 kmh 30.09 in1019.0 mb 0.00 in0.0 mm 0.00 in0.0 mm 0.02 in0.5 mm
10:42 AM 83.7°F28.7°C 76.3°F24.6°C 78% 1.0 mph W1.6 kmh W 2.0 mph3.2 kmh 30.09 in1019.0 mb 0.00 in0.0 mm 0.00 in0.0 mm 0.02 in0.5 mm
10:47 AM 84.0°F28.9°C 76.6°F24.8°C 78% 1.0 mph NW1.6 kmh NW 1.0 mph1.6 kmh 30.10 in1019.3 mb 0.00 in0.0 mm 0.00 in0.0 mm 0.02 in0.5 mm
10:52 AM 83.5°F28.6°C 76.4°F24.7°C 79% Calm Calm 1.0 mph1.6 kmh 30.10 in1019.3 mb 0.00 in0.0 mm 0.00 in0.0 mm 0.02 in0.5 mm
10:57 AM 83.7°F28.7°C 76.3°F24.6°C 78% 1.0 mph NE1.6 kmh NE 1.0 mph1.6 kmh 30.10 in1019.3 mb 0.00 in0.0 mm 0.00 in0.0 mm 0.02 in0.5 mm
11:02 AM 83.6°F28.7°C 75.8°F24.3°C 77% Calm Calm 1.0 mph1.6 kmh 30.10 in1019.3 mb 0.00 in0.0 mm 0.00 in0.0 mm 0.02 in0.5 mm
11:07 AM 84.1°F28.9°C 76.7°F24.8°C 78% 1.0 mph E1.6 kmh E 1.0 mph1.6 kmh 30.10 in1019.3 mb 0.00 in0.0 mm 0.00 in0.0 mm 0.02 in0.5 mm
11:12 AM 84.4°F29.1°C 76.6°F24.8°C 77% 1.0 mph ESE1.6 kmh ESE 1.0 mph1.6 kmh 30.10 in1019.3 mb 0.00 in0.0 mm 0.00 in0.0 mm 0.02 in0.5 mm
11:17 AM 85.0°F29.4°C 77.9°F25.5°C 79% Calm Calm 1.0 mph1.6 kmh 30.09 in1019.0 mb 0.00 in0.0 mm 0.00 in0.0 mm 0.02 in0.5 mm
11:21 AM 85.6°F29.8°C 76.6°F24.8°C 74% Calm Calm 1.0 mph1.6 kmh 30.10 in1019.3 mb 0.00 in0.0 mm 0.00 in0.0 mm 0.02 in0.5 mm
11:26 AM 86.3°F30.2°C 76.9°F24.9°C 73% 1.0 mph ENE1.6 kmh ENE 1.0 mph1.6 kmh 30.10 in1019.3 mb 0.00 in0.0 mm 0.00 in0.0 mm 0.02 in0.5 mm
11:31 AM 86.2°F30.1°C 77.2°F25.1°C 74% Calm Calm 1.0 mph1.6 kmh 30.10 in1019.3 mb 0.00 in0.0 mm 0.00 in0.0 mm 0.02 in0.5 mm
11:36 AM 86.2°F30.1°C 77.2°F25.1°C 74% 1.0 mph E1.6 kmh E 1.0 mph1.6 kmh 30.10 in1019.3 mb 0.00 in0.0 mm 0.00 in0.0 mm 0.02 in0.5 mm
11:41 AM 86.2°F30.1°C 77.2°F25.1°C 74% Calm Calm 2.0 mph3.2 kmh 30.10 in1019.3 mb 0.00 in0.0 mm 0.00 in0.0 mm 0.02 in0.5 mm
11:46 AM 86.6°F30.3°C 77.5°F25.3°C 74% Calm Calm 2.0 mph3.2 kmh 30.10 in1019.3 mb 0.00 in0.0 mm 0.00 in0.0 mm 0.02 in0.5 mm
11:51 AM 87.1°F30.6°C 76.4°F24.7°C 70% 1.0 mph SW1.6 kmh SW 2.0 mph3.2 kmh 30.10 in1019.3 mb 0.00 in0.0 mm 0.00 in0.0 mm 0.02 in0.5 mm
11:56 AM 87.0°F30.6°C 76.3°F24.6°C 70% 1.2 mph S1.9 kmh S 2.0 mph3.2 kmh 30.10 in1019.3 mb 0.00 in0.0 mm 0.00 in0.0 mm 0.02 in0.5 mm
12:01 PM 87.0°F30.6°C 76.3°F24.6°C 70% 1.5 mph E2.4 kmh E 2.0 mph3.2 kmh 30.10 in1019.3 mb 0.00 in0.0 mm 0.00 in0.0 mm 0.02 in0.5 mm
12:06 PM 86.7°F30.4°C 76.4°F24.7°C 71% 1.0 mph E1.6 kmh E 2.0 mph3.2 kmh 30.10 in1019.3 mb 0.00 in0.0 mm 0.00 in0.0 mm 0.02 in0.5 mm
12:11 PM 87.2°F30.7°C 76.5°F24.7°C 70% Calm Calm 2.0 mph3.2 kmh 30.10 in1019.3 mb 0.00 in0.0 mm 0.00 in0.0 mm 0.02 in0.5 mm
12:16 PM 87.8°F31.0°C 76.4°F24.7°C 69% Calm Calm 2.0 mph3.2 kmh 30.10 in1019.3 mb 0.00 in0.0 mm 0.00 in0.0 mm 0.02 in0.5 mm
12:21 PM 88.4°F31.3°C 76.0°F24.4°C 67% Calm Calm 1.0 mph1.6 kmh 30.10 in1019.3 mb 0.00 in0.0 mm 0.00 in0.0 mm 0.02 in0.5 mm
12:26 PM 88.8°F31.6°C 77.2°F25.1°C 68% Calm Calm 1.0 mph1.6 kmh 30.10 in1019.3 mb 0.00 in0.0 mm 0.00 in0.0 mm 0.02 in0.5 mm
12:31 PM 89.5°F31.9°C 76.2°F24.6°C 65% Calm Calm 1.0 mph1.6 kmh 30.10 in1019.3 mb 0.00 in0.0 mm 0.00 in0.0 mm 0.02 in0.5 mm
12:36 PM 89.2°F31.8°C 75.9°F24.4°C 65% 1.4 mph S2.3 kmh S 4.0 mph6.4 kmh 30.10 in1019.3 mb 0.00 in0.0 mm 0.00 in0.0 mm 0.02 in0.5 mm
12:41 PM 88.8°F31.6°C 75.5°F24.2°C 65% 1.0 mph W1.6 kmh W 4.0 mph6.4 kmh 30.10 in1019.3 mb 0.00 in0.0 mm 0.00 in0.0 mm 0.02 in0.5 mm
12:46 PM 89.1°F31.7°C 77.4°F25.2°C 68% Calm Calm 4.0 mph6.4 kmh 30.10 in1019.3 mb 0.00 in0.0 mm 0.00 in0.0 mm 0.02 in0.5 mm
12:51 PM 90.0°F32.2°C 77.4°F25.2°C 66% 1.0 mph WSW1.6 kmh WSW 4.0 mph6.4 kmh 30.10 in1019.3 mb 0.00 in0.0 mm 0.00 in0.0 mm 0.02 in0.5 mm
12:56 PM 90.1°F32.3°C 76.1°F24.5°C 63% 1.6 mph SSW2.6 kmh SSW 4.0 mph6.4 kmh 30.10 in1019.3 mb 0.00 in0.0 mm 0.00 in0.0 mm 0.02 in0.5 mm
01:01 PM 90.0°F32.2°C 76.0°F24.4°C 63% 1.8 mph SSW2.9 kmh SSW 4.0 mph6.4 kmh 30.10 in1019.3 mb 0.00 in0.0 mm 0.00 in0.0 mm 0.02 in0.5 mm
01:06 PM 89.8°F32.1°C 75.3°F24.1°C 62% 1.2 mph SE1.9 kmh SE 4.0 mph6.4 kmh 30.10 in1019.3 mb 0.00 in0.0 mm 0.00 in0.0 mm 0.02 in0.5 mm
01:11 PM 89.7°F32.1°C 75.7°F24.3°C 63% 1.0 mph E1.6 kmh E 4.0 mph6.4 kmh 30.09 in1019.0 mb 0.00 in0.0 mm 0.00 in0.0 mm 0.02 in0.5 mm
01:16 PM 89.5°F31.9°C 76.5°F24.7°C 65% 1.4 mph SW2.3 kmh SW 4.0 mph6.4 kmh 30.09 in1019.0 mb 0.00 in0.0 mm 0.00 in0.0 mm 0.02 in0.5 mm
01:21 PM 89.2°F31.8°C 76.7°F24.8°C 66% 1.2 mph S1.9 kmh S 4.0 mph6.4 kmh 30.09 in1019.0 mb 0.00 in0.0 mm 0.00 in0.0 mm 0.02 in0.5 mm
01:26 PM 89.2°F31.8°C 75.9°F24.4°C 65% 1.3 mph W2.1 kmh W 5.0 mph8.0 kmh 30.09 in1019.0 mb 0.00 in0.0 mm 0.00 in0.0 mm 0.02 in0.5 mm
01:31 PM 89.9°F32.2°C 76.4°F24.7°C 64% 1.2 mph WNW1.9 kmh WNW 5.0 mph8.0 kmh 30.08 in1018.6 mb 0.00 in0.0 mm 0.00 in0.0 mm 0.02 in0.5 mm
01:36 PM 89.8°F32.1°C 75.8°F24.3°C 63% 1.6 mph ENE2.6 kmh ENE 5.0 mph8.0 kmh 30.08 in1018.6 mb 0.00 in0.0 mm 0.00 in0.0 mm 0.02 in0.5 mm
01:41 PM 88.9°F31.6°C 74.7°F23.7°C 63% 1.0 mph E1.6 kmh E 3.0 mph4.8 kmh 30.08 in1018.6 mb 0.00 in0.0 mm 0.00 in0.0 mm 0.02 in0.5 mm
01:46 PM 88.5°F31.4°C 74.3°F23.5°C 63% Calm Calm 3.0 mph4.8 kmh 30.08 in1018.6 mb 0.00 in0.0 mm 0.00 in0.0 mm 0.02 in0.5 mm
01:51 PM 89.0°F31.7°C 75.1°F23.9°C 63% Calm Calm 3.0 mph4.8 kmh 30.07 in1018.3 mb 0.00 in0.0 mm 0.00 in0.0 mm 0.02 in0.5 mm
01:56 PM 90.0°F32.2°C 76.5°F24.7°C 64% 1.3 mph W2.1 kmh W 3.0 mph4.8 kmh 30.07 in1018.3 mb 0.00 in0.0 mm 0.00 in0.0 mm 0.02 in0.5 mm
02:01 PM 90.2°F32.3°C 76.4°F24.7°C 64% 1.1 mph W1.8 kmh W 4.0 mph6.4 kmh 30.07 in1018.3 mb 0.00 in0.0 mm 0.00 in0.0 mm 0.02 in0.5 mm
02:06 PM 89.8°F32.1°C 76.3°F24.6°C 64% 1.4 mph NW2.3 kmh NW 4.0 mph6.4 kmh 30.06 in1017.9 mb 0.00 in0.0 mm 0.00 in0.0 mm 0.02 in0.5 mm
02:11 PM 89.3°F31.8°C 76.0°F24.4°C 65% 2.3 mph SW3.7 kmh SW 5.0 mph8.0 kmh 30.06 in1017.9 mb 0.00 in0.0 mm 0.00 in0.0 mm 0.02 in0.5 mm
02:16 PM 89.2°F31.8°C 76.2°F24.6°C 65% 1.9 mph W3.1 kmh W 5.0 mph8.0 kmh 30.06 in1017.9 mb 0.00 in0.0 mm 0.00 in0.0 mm 0.02 in0.5 mm
02:21 PM 89.7°F32.1°C 75.4°F24.1°C 63% 1.0 mph WNW1.6 kmh WNW 5.0 mph8.0 kmh 30.06 in1017.9 mb 0.00 in0.0 mm 0.00 in0.0 mm 0.02 in0.5 mm
02:26 PM 90.0°F32.2°C 74.7°F23.7°C 61% 1.8 mph ENE2.9 kmh ENE 5.0 mph8.0 kmh 30.05 in1017.6 mb 0.00 in0.0 mm 0.00 in0.0 mm 0.02 in0.5 mm
02:31 PM 90.3°F32.4°C 75.8°F24.3°C 62% 3.3 mph WNW5.3 kmh WNW 7.0 mph11.3 kmh 30.05 in1017.6 mb 0.00 in0.0 mm 0.00 in0.0 mm 0.02 in0.5 mm
02:36 PM 90.6°F32.6°C 77.5°F25.3°C 65% 2.7 mph SW4.3 kmh SW 7.0 mph11.3 kmh 30.05 in1017.6 mb 0.00 in0.0 mm 0.00 in0.0 mm 0.02 in0.5 mm
02:41 PM 91.3°F32.9°C 76.8°F24.9°C 62% 1.9 mph W3.1 kmh W 7.0 mph11.3 kmh 30.05 in1017.6 mb 0.00 in0.0 mm 0.00 in0.0 mm 0.02 in0.5 mm
02:47 PM 90.9°F32.7°C 76.9°F24.9°C 63% 1.7 mph NW2.7 kmh NW 7.0 mph11.3 kmh 30.05 in1017.6 mb 0.00 in0.0 mm 0.00 in0.0 mm 0.02 in0.5 mm
02:51 PM 91.2°F32.9°C 76.2°F24.6°C 61% 1.6 mph NW2.6 kmh NW 5.0 mph8.0 kmh 30.05 in1017.6 mb 0.00 in0.0 mm 0.00 in0.0 mm 0.02 in0.5 mm
02:57 PM 91.1°F32.8°C 75.6°F24.2°C 60% 2.6 mph WNW4.2 kmh WNW 7.0 mph11.3 kmh 30.05 in1017.6 mb 0.00 in0.0 mm 0.00 in0.0 mm 0.02 in0.5 mm
03:02 PM 91.0°F32.8°C 75.5°F24.2°C 60% 1.7 mph N2.7 kmh N 7.0 mph11.3 kmh 30.04 in1017.3 mb 0.00 in0.0 mm 0.00 in0.0 mm 0.02 in0.5 mm
03:07 PM 91.8°F33.2°C 76.7°F24.8°C 61% 2.1 mph S3.4 kmh S 7.0 mph11.3 kmh 30.04 in1017.3 mb 0.00 in0.0 mm 0.00 in0.0 mm 0.02 in0.5 mm
03:12 PM 91.6°F33.1°C 75.5°F24.2°C 59% 3.2 mph WSW5.1 kmh WSW 8.0 mph12.9 kmh 30.04 in1017.3 mb 0.00 in0.0 mm 0.00 in0.0 mm 0.02 in0.5 mm
03:17 PM 91.2°F32.9°C 75.7°F24.3°C 60% 2.6 mph NNW4.2 kmh NNW 8.0 mph12.9 kmh 30.04 in1017.3 mb 0.00 in0.0 mm 0.00 in0.0 mm 0.02 in0.5 mm
03:22 PM 91.6°F33.1°C 76.2°F24.6°C 61% 2.5 mph WNW4.0 kmh WNW 8.0 mph12.9 kmh 30.04 in1017.3 mb 0.00 in0.0 mm 0.00 in0.0 mm 0.02 in0.5 mm
03:27 PM 91.5°F33.1°C 76.0°F24.4°C 60% 3.0 mph WSW4.8 kmh WSW 8.0 mph12.9 kmh 30.04 in1017.3 mb 0.00 in0.0 mm 0.00 in0.0 mm 0.02 in0.5 mm
03:32 PM 92.1°F33.4°C 76.5°F24.7°C 60% 2.0 mph WNW3.2 kmh WNW 6.0 mph9.7 kmh 30.03 in1016.9 mb 0.00 in0.0 mm 0.00 in0.0 mm 0.02 in0.5 mm
03:37 PM 91.6°F33.1°C 76.1°F24.5°C 60% 3.9 mph NW6.3 kmh NW 7.0 mph11.3 kmh 30.03 in1016.9 mb 0.00 in0.0 mm 0.00 in0.0 mm 0.02 in0.5 mm
03:42 PM 91.7°F33.2°C 76.2°F24.6°C 60% 3.1 mph NW5.0 kmh NW 7.0 mph11.3 kmh 30.03 in1016.9 mb 0.00 in0.0 mm 0.00 in0.0 mm 0.02 in0.5 mm
03:47 PM 91.6°F33.1°C 76.1°F24.5°C 60% 2.0 mph WNW3.2 kmh WNW 7.0 mph11.3 kmh 30.03 in1016.9 mb 0.00 in0.0 mm 0.00 in0.0 mm 0.02 in0.5 mm
03:52 PM 91.5°F33.1°C 74.9°F23.8°C 58% 1.5 mph W2.4 kmh W 7.0 mph11.3 kmh 30.03 in1016.9 mb 0.00 in0.0 mm 0.00 in0.0 mm 0.02 in0.5 mm
03:57 PM 91.8°F33.2°C 75.2°F24.0°C 58% 2.4 mph SW3.9 kmh SW 7.0 mph11.3 kmh 30.03 in1016.9 mb 0.00 in0.0 mm 0.00 in0.0 mm 0.02 in0.5 mm
04:02 PM 91.8°F33.2°C 74.1°F23.4°C 56% 2.1 mph WNW3.4 kmh WNW 6.0 mph9.7 kmh 30.03 in1016.9 mb 0.00 in0.0 mm 0.00 in0.0 mm 0.02 in0.5 mm
04:07 PM 92.4°F33.6°C 75.8°F24.3°C 58% 1.4 mph SW2.3 kmh SW 6.0 mph9.7 kmh 30.02 in1016.6 mb 0.00 in0.0 mm 0.00 in0.0 mm 0.02 in0.5 mm
04:12 PM 92.7°F33.7°C 75.0°F23.9°C 56% 2.2 mph W3.5 kmh W 6.0 mph9.7 kmh 30.02 in1016.6 mb 0.00 in0.0 mm 0.00 in0.0 mm 0.02 in0.5 mm
04:17 PM 92.4°F33.6°C 75.2°F24.0°C 57% 2.0 mph WNW3.2 kmh WNW 6.0 mph9.7 kmh 30.02 in1016.6 mb 0.00 in0.0 mm 0.00 in0.0 mm 0.02 in0.5 mm
04:21 PM 92.1°F33.4°C 73.9°F23.3°C 55% 2.3 mph WSW3.7 kmh WSW 7.0 mph11.3 kmh 30.02 in1016.6 mb 0.00 in0.0 mm 0.00 in0.0 mm 0.02 in0.5 mm
04:26 PM 92.3°F33.5°C 74.6°F23.7°C 56% 2.5 mph W4.0 kmh W 7.0 mph11.3 kmh 30.01 in1016.3 mb 0.00 in0.0 mm 0.00 in0.0 mm 0.02 in0.5 mm
04:31 PM 92.1°F33.4°C 73.9°F23.3°C 55% 3.1 mph WSW5.0 kmh WSW 8.0 mph12.9 kmh 30.01 in1016.3 mb 0.00 in0.0 mm 0.00 in0.0 mm 0.02 in0.5 mm
04:36 PM 92.6°F33.7°C 74.6°F23.7°C 56% 2.0 mph SW3.2 kmh SW 8.0 mph12.9 kmh 30.01 in1016.3 mb 0.00 in0.0 mm 0.00 in0.0 mm 0.02 in0.5 mm
04:41 PM 92.9°F33.8°C 73.5°F23.1°C 53% 2.8 mph SW4.5 kmh SW 8.0 mph12.9 kmh 30.01 in1016.3 mb 0.00 in0.0 mm 0.00 in0.0 mm 0.02 in0.5 mm
04:46 PM 93.0°F33.9°C 75.3°F24.1°C 56% 2.1 mph WSW3.4 kmh WSW 8.0 mph12.9 kmh 30.01 in1016.3 mb 0.00 in0.0 mm 0.00 in0.0 mm 0.02 in0.5 mm
04:51 PM 93.3°F34.1°C 75.6°F24.2°C 56% 1.3 mph WSW2.1 kmh WSW 5.0 mph8.0 kmh 30.01 in1016.3 mb 0.00 in0.0 mm 0.00 in0.0 mm 0.02 in0.5 mm
04:56 PM 93.8°F34.3°C 74.3°F23.5°C 53% 1.5 mph E2.4 kmh E 5.0 mph8.0 kmh 30.01 in1016.3 mb 0.00 in0.0 mm 0.00 in0.0 mm 0.02 in0.5 mm
05:01 PM 94.1°F34.5°C 73.4°F23.0°C 51% 1.0 mph NE1.6 kmh NE 4.0 mph6.4 kmh 30.01 in1016.3 mb 0.00 in0.0 mm 0.00 in0.0 mm 0.02 in0.5 mm
05:06 PM 93.8°F34.3°C 73.5°F23.1°C 52% 2.8 mph NNE4.5 kmh NNE 6.0 mph9.7 kmh 30.01 in1016.3 mb 0.00 in0.0 mm 0.00 in0.0 mm 0.02 in0.5 mm
05:11 PM 93.4°F34.1°C 72.2°F22.3°C 50% 2.8 mph SW4.5 kmh SW 7.0 mph11.3 kmh 30.01 in1016.3 mb 0.00 in0.0 mm 0.00 in0.0 mm 0.02 in0.5 mm
05:16 PM 93.2°F34.0°C 71.8°F22.1°C 50% 2.3 mph SW3.7 kmh SW 7.0 mph11.3 kmh 30.00 in1015.9 mb 0.00 in0.0 mm 0.00 in0.0 mm 0.02 in0.5 mm
05:21 PM 93.6°F34.2°C 72.7°F22.6°C 51% 1.5 mph WSW2.4 kmh WSW 7.0 mph11.3 kmh 30.00 in1015.9 mb 0.00 in0.0 mm 0.00 in0.0 mm 0.02 in0.5 mm
05:26 PM 93.8°F34.3°C 72.9°F22.7°C 51% 1.6 mph SSW2.6 kmh SSW 7.0 mph11.3 kmh 30.00 in1015.9 mb 0.00 in0.0 mm 0.00 in0.0 mm 0.02 in0.5 mm
05:31 PM 93.7°F34.3°C 73.7°F23.2°C 52% 1.2 mph WSW1.9 kmh WSW 6.0 mph9.7 kmh 30.00 in1015.9 mb 0.00 in0.0 mm 0.00 in0.0 mm 0.02 in0.5 mm
05:36 PM 94.1°F34.5°C 72.8°F22.7°C 50% 1.0 mph SW1.6 kmh SW 5.0 mph8.0 kmh 30.00 in1015.9 mb 0.00 in0.0 mm 0.00 in0.0 mm 0.02 in0.5 mm
05:41 PM 94.7°F34.8°C 73.4°F23.0°C 50% Calm Calm 5.0 mph8.0 kmh 30.00 in1015.9 mb 0.00 in0.0 mm 0.00 in0.0 mm 0.02 in0.5 mm
05:46 PM 93.6°F34.2°C 72.4°F22.4°C 50% 1.2 mph SE1.9 kmh SE 3.0 mph4.8 kmh 30.00 in1015.9 mb 0.00 in0.0 mm 0.00 in0.0 mm 0.02 in0.5 mm
05:51 PM 94.1°F34.5°C 74.0°F23.3°C 52% 2.5 mph NW4.0 kmh NW 4.0 mph6.4 kmh 30.00 in1015.9 mb 0.00 in0.0 mm 0.00 in0.0 mm 0.02 in0.5 mm
05:56 PM 94.2°F34.6°C 73.5°F23.1°C 51% 2.2 mph NW3.5 kmh NW 4.0 mph6.4 kmh 30.00 in1015.9 mb 0.00 in0.0 mm 0.00 in0.0 mm 0.02 in0.5 mm
06:01 PM 94.2°F34.6°C 74.7°F23.7°C 53% Calm Calm 4.0 mph6.4 kmh 30.00 in1015.9 mb 0.00 in0.0 mm 0.00 in0.0 mm 0.02 in0.5 mm
06:06 PM 94.4°F34.7°C 74.9°F23.8°C 53% 2.2 mph NE3.5 kmh NE 4.0 mph6.4 kmh 30.00 in1015.9 mb 0.00 in0.0 mm 0.00 in0.0 mm 0.02 in0.5 mm
06:11 PM 93.6°F34.2°C 73.6°F23.1°C 52% 1.2 mph N1.9 kmh N 5.0 mph8.0 kmh 30.00 in1015.9 mb 0.00 in0.0 mm 0.00 in0.0 mm 0.02 in0.5 mm
06:16 PM 92.9°F33.8°C 73.5°F23.1°C 53% 1.8 mph ENE2.9 kmh ENE 5.0 mph8.0 kmh 30.00 in1015.9 mb 0.00 in0.0 mm 0.00 in0.0 mm 0.02 in0.5 mm
06:21 PM 93.0°F33.9°C 74.2°F23.4°C 54% 1.0 mph N1.6 kmh N 5.0 mph8.0 kmh 30.00 in1015.9 mb 0.00 in0.0 mm 0.00 in0.0 mm 0.02 in0.5 mm
06:26 PM 93.4°F34.1°C 74.0°F23.3°C 53% 1.8 mph NW2.9 kmh NW 4.0 mph6.4 kmh 30.00 in1015.9 mb 0.00 in0.0 mm 0.00 in0.0 mm 0.02 in0.5 mm
06:31 PM 93.3°F34.1°C 75.0°F23.9°C 55% 1.0 mph NNW1.6 kmh NNW 3.0 mph4.8 kmh 29.99 in1015.6 mb 0.00 in0.0 mm 0.00 in0.0 mm 0.02 in0.5 mm
06:36 PM 93.6°F34.2°C 74.1°F23.4°C 53% 1.6 mph NNE2.6 kmh NNE 3.0 mph4.8 kmh 29.99 in1015.6 mb 0.00 in0.0 mm 0.00 in0.0 mm 0.02 in0.5 mm
06:41 PM 93.7°F34.3°C 74.8°F23.8°C 54% 1.0 mph NE1.6 kmh NE 3.0 mph4.8 kmh 29.99 in1015.6 mb 0.00 in0.0 mm 0.00 in0.0 mm 0.02 in0.5 mm
06:46 PM 92.8°F33.8°C 74.5°F23.6°C 55% 2.7 mph E4.3 kmh E 4.0 mph6.4 kmh 29.99 in1015.6 mb 0.00 in0.0 mm 0.00 in0.0 mm 0.02 in0.5 mm
06:51 PM 92.0°F33.3°C 74.3°F23.5°C 56% 1.3 mph NW2.1 kmh NW 4.0 mph6.4 kmh 29.99 in1015.6 mb 0.00 in0.0 mm 0.00 in0.0 mm 0.02 in0.5 mm
06:56 PM 91.4°F33.0°C 73.8°F23.2°C 56% 1.1 mph N1.8 kmh N 4.0 mph6.4 kmh 30.00 in1015.9 mb 0.00 in0.0 mm 0.00 in0.0 mm 0.02 in0.5 mm
07:01 PM 91.1°F32.8°C 74.0°F23.3°C 57% 1.0 mph NE1.6 kmh NE 4.0 mph6.4 kmh 30.00 in1015.9 mb 0.00 in0.0 mm 0.00 in0.0 mm 0.02 in0.5 mm
07:06 PM 90.8°F32.7°C 73.5°F23.1°C 57% 1.2 mph N1.9 kmh N 2.0 mph3.2 kmh 30.00 in1015.9 mb 0.00 in0.0 mm 0.00 in0.0 mm 0.02 in0.5 mm
07:11 PM 90.4°F32.4°C 73.1°F22.8°C 57% 1.1 mph N1.8 kmh N 3.0 mph4.8 kmh 30.00 in1015.9 mb 0.00 in0.0 mm 0.00 in0.0 mm 0.02 in0.5 mm
07:16 PM 90.1°F32.3°C 73.1°F22.8°C 57% 1.4 mph NW2.3 kmh NW 3.0 mph4.8 kmh 29.99 in1015.6 mb 0.00 in0.0 mm 0.00 in0.0 mm 0.02 in0.5 mm
07:21 PM 90.0°F32.2°C 73.0°F22.8°C 57% 1.3 mph NE2.1 kmh NE 3.0 mph4.8 kmh 29.99 in1015.6 mb 0.00 in0.0 mm 0.00 in0.0 mm 0.02 in0.5 mm
07:26 PM 89.9°F32.2°C 72.9°F22.7°C 57% 1.0 mph NW1.6 kmh NW 3.0 mph4.8 kmh 29.99 in1015.6 mb 0.00 in0.0 mm 0.00 in0.0 mm 0.02 in0.5 mm
07:31 PM 89.7°F32.1°C 72.7°F22.6°C 57% 1.0 mph NNW1.6 kmh NNW 3.0 mph4.8 kmh 30.00 in1015.9 mb 0.00 in0.0 mm 0.00 in0.0 mm 0.02 in0.5 mm
07:36 PM 89.5°F31.9°C 73.1°F22.8°C 58% 1.0 mph NW1.6 kmh NW 2.0 mph3.2 kmh 30.01 in1016.3 mb 0.00 in0.0 mm 0.00 in0.0 mm 0.02 in0.5 mm
07:41 PM 89.4°F31.9°C 73.0°F22.8°C 58% Calm Calm 2.0 mph3.2 kmh 30.01 in1016.3 mb 0.00 in0.0 mm 0.00 in0.0 mm 0.02 in0.5 mm
07:46 PM 89.3°F31.8°C 73.4°F23.0°C 59% 1.7 mph N2.7 kmh N 3.0 mph4.8 kmh 30.01 in1016.3 mb 0.00 in0.0 mm 0.00 in0.0 mm 0.02 in0.5 mm
07:51 PM 89.3°F31.8°C 73.4°F23.0°C 59% 1.2 mph NW1.9 kmh NW 3.0 mph4.8 kmh 30.00 in1015.9 mb 0.00 in0.0 mm 0.00 in0.0 mm 0.02 in0.5 mm
07:56 PM 88.7°F31.5°C 75.0°F23.9°C 64% 3.1 mph WNW5.0 kmh WNW 7.0 mph11.3 kmh 30.01 in1016.3 mb 0.00 in0.0 mm 0.00 in0.0 mm 0.02 in0.5 mm
08:01 PM 87.4°F30.8°C 75.4°F24.1°C 67% 1.4 mph E2.3 kmh E 7.0 mph11.3 kmh 30.03 in1016.9 mb 0.00 in0.0 mm 0.00 in0.0 mm 0.02 in0.5 mm
08:06 PM 86.2°F30.1°C 75.9°F24.4°C 71% 2.5 mph NW4.0 kmh NW 11.0 mph17.7 kmh 30.03 in1016.9 mb 0.00 in0.0 mm 0.00 in0.0 mm 0.02 in0.5 mm
08:11 PM 85.2°F29.6°C 75.0°F23.9°C 71% 2.4 mph NW3.9 kmh NW 11.0 mph17.7 kmh 30.04 in1017.3 mb 0.00 in0.0 mm 0.00 in0.0 mm 0.02 in0.5 mm
08:16 PM 83.4°F28.6°C 74.0°F23.3°C 73% 3.9 mph SW6.3 kmh SW 11.0 mph17.7 kmh 30.04 in1017.3 mb 0.00 in0.0 mm 0.00 in0.0 mm 0.02 in0.5 mm
08:30 PM 74.0°F23.3°C 70.6°F21.4°C 89% 4.0 mph SE6.4 kmh SE 17.0 mph27.4 kmh 30.06 in1017.9 mb 0.00 in0.0 mm 0.00 in0.0 mm 0.07 in1.8 mm
09:15 PM 72.7°F22.6°C 70.8°F21.6°C 94% 1.0 mph ESE1.6 kmh ESE 2.0 mph3.2 kmh 30.07 in1018.3 mb 1.98 in50.3 mm 7.92 in201.2 mm 2.01 in51.1 mm
09:20 PM 72.8°F22.7°C 70.9°F21.6°C 94% 1.9 mph E3.1 kmh E 3.0 mph4.8 kmh 30.07 in1018.3 mb 0.07 in1.8 mm 0.00 in0.0 mm 2.07 in52.6 mm
09:25 PM 72.8°F22.7°C 70.9°F21.6°C 94% 3.2 mph ESE5.1 kmh ESE 5.0 mph8.0 kmh 30.06 in1017.9 mb 0.09 in2.3 mm 0.24 in6.1 mm 2.09 in53.1 mm
09:30 PM 72.9°F22.7°C 71.4°F21.9°C 95% 2.0 mph ESE3.2 kmh ESE 5.0 mph8.0 kmh 30.06 in1017.9 mb 0.09 in2.3 mm 0.00 in0.0 mm 2.10 in53.3 mm
09:35 PM 73.0°F22.8°C 71.5°F21.9°C 95% 1.4 mph E2.3 kmh E 5.0 mph8.0 kmh 30.06 in1017.9 mb 0.10 in2.5 mm 0.12 in3.0 mm 2.11 in53.6 mm
09:40 PM 73.1°F22.8°C 71.6°F22.0°C 95% 2.0 mph ESE3.2 kmh ESE 5.0 mph8.0 kmh 30.06 in1017.9 mb 0.10 in2.5 mm 0.00 in0.0 mm 2.11 in53.6 mm
09:45 PM 73.2°F22.9°C 71.3°F21.8°C 94% 2.3 mph E3.7 kmh E 5.0 mph8.0 kmh 30.06 in1017.9 mb 0.11 in2.8 mm 0.12 in3.0 mm 2.12 in53.8 mm
09:50 PM 73.2°F22.9°C 71.3°F21.8°C 94% 2.1 mph NW3.4 kmh NW 5.0 mph8.0 kmh 30.07 in1018.3 mb 0.11 in2.8 mm 0.00 in0.0 mm 2.12 in53.8 mm
09:55 PM 72.9°F22.7°C 71.0°F21.7°C 94% 1.6 mph NNE2.6 kmh NNE 5.0 mph8.0 kmh 30.08 in1018.6 mb 0.11 in2.8 mm 0.00 in0.0 mm 2.12 in53.8 mm
10:00 PM 72.8°F22.7°C 71.3°F21.8°C 95% 1.5 mph N2.4 kmh N 5.0 mph8.0 kmh 30.08 in1018.6 mb 0.11 in2.8 mm 0.00 in0.0 mm 2.12 in53.8 mm
10:05 PM 72.7°F22.6°C 71.2°F21.8°C 95% 1.2 mph NW1.9 kmh NW 5.0 mph8.0 kmh 30.07 in1018.3 mb 0.11 in2.8 mm 0.00 in0.0 mm 2.12 in53.8 mm
10:10 PM 72.6°F22.6°C 71.1°F21.7°C 95% 1.0 mph NNE1.6 kmh NNE 5.0 mph8.0 kmh 30.07 in1018.3 mb 0.11 in2.8 mm 0.00 in0.0 mm 2.12 in53.8 mm
10:15 PM 72.7°F22.6°C 71.2°F21.8°C 95% Calm Calm 5.0 mph8.0 kmh 30.08 in1018.6 mb 0.11 in2.8 mm 0.00 in0.0 mm 2.12 in53.8 mm
10:20 PM 72.6°F22.6°C 71.1°F21.7°C 95% 1.0 mph E1.6 kmh E 3.0 mph4.8 kmh 30.08 in1018.6 mb 0.05 in1.3 mm 0.00 in0.0 mm 2.12 in53.8 mm
10:25 PM 72.7°F22.6°C 71.5°F21.9°C 96% 1.0 mph ENE1.6 kmh ENE 2.0 mph3.2 kmh 30.08 in1018.6 mb 0.03 in0.8 mm 0.00 in0.0 mm 2.12 in53.8 mm
10:30 PM 72.7°F22.6°C 71.5°F21.9°C 96% 1.4 mph E2.3 kmh E 3.0 mph4.8 kmh 30.08 in1018.6 mb 0.02 in0.5 mm 0.00 in0.0 mm 2.12 in53.8 mm
10:35 PM 72.6°F22.6°C 71.1°F21.7°C 95% 2.1 mph E3.4 kmh E 4.0 mph6.4 kmh 30.08 in1018.6 mb 0.01 in0.3 mm 0.00 in0.0 mm 2.12 in53.8 mm
10:40 PM 72.6°F22.6°C 71.4°F21.9°C 96% 1.6 mph ENE2.6 kmh ENE 4.0 mph6.4 kmh 30.08 in1018.6 mb 0.01 in0.3 mm 0.00 in0.0 mm 2.12 in53.8 mm
10:45 PM 72.6°F22.6°C 71.4°F21.9°C 96% 3.0 mph ENE4.8 kmh ENE 7.0 mph11.3 kmh 30.08 in1018.6 mb 0.00 in0.0 mm 0.00 in0.0 mm 2.12 in53.8 mm
10:50 PM 72.6°F22.6°C 71.4°F21.9°C 96% 1.5 mph NE2.4 kmh NE 7.0 mph11.3 kmh 30.09 in1019.0 mb 0.00 in0.0 mm 0.00 in0.0 mm 2.12 in53.8 mm
10:55 PM 72.6°F22.6°C 71.4°F21.9°C 96% 1.7 mph NE2.7 kmh NE 7.0 mph11.3 kmh 30.10 in1019.3 mb 0.00 in0.0 mm 0.00 in0.0 mm 2.12 in53.8 mm
11:00 PM 72.6°F22.6°C 71.4°F21.9°C 96% 4.2 mph NE6.8 kmh NE 8.0 mph12.9 kmh 30.09 in1019.0 mb 0.00 in0.0 mm 0.00 in0.0 mm 2.12 in53.8 mm
11:05 PM 72.7°F22.6°C 71.8°F22.1°C 97% 3.6 mph ENE5.8 kmh ENE 8.0 mph12.9 kmh 30.09 in1019.0 mb 0.01 in0.3 mm 0.12 in3.0 mm 2.13 in54.1 mm
11:10 PM 73.0°F22.8°C 72.1°F22.3°C 97% 2.7 mph ENE4.3 kmh ENE 10.0 mph16.1 kmh 30.10 in1019.3 mb 0.01 in0.3 mm 0.00 in0.0 mm 2.13 in54.1 mm
11:15 PM 73.1°F22.8°C 72.2°F22.3°C 97% 2.5 mph ENE4.0 kmh ENE 10.0 mph16.1 kmh 30.10 in1019.3 mb 0.01 in0.3 mm 0.00 in0.0 mm 2.13 in54.1 mm
11:20 PM 73.2°F22.9°C 72.3°F22.4°C 97% 3.6 mph ENE5.8 kmh ENE 10.0 mph16.1 kmh 30.10 in1019.3 mb 0.01 in0.3 mm 0.00 in0.0 mm 2.13 in54.1 mm
11:25 PM 73.3°F22.9°C 72.4°F22.4°C 97% 1.7 mph ENE2.7 kmh ENE 10.0 mph16.1 kmh 30.10 in1019.3 mb 0.01 in0.3 mm 0.00 in0.0 mm 2.13 in54.1 mm
11:30 PM 73.3°F22.9°C 72.4°F22.4°C 97% 1.3 mph E2.1 kmh E 10.0 mph16.1 kmh 30.09 in1019.0 mb 0.01 in0.3 mm 0.00 in0.0 mm 2.13 in54.1 mm
11:35 PM 73.3°F22.9°C 72.4°F22.4°C 97% 1.3 mph E2.1 kmh E 10.0 mph16.1 kmh 30.09 in1019.0 mb 0.01 in0.3 mm 0.00 in0.0 mm 2.13 in54.1 mm
11:40 PM 73.3°F22.9°C 72.4°F22.4°C 97% 1.6 mph E2.6 kmh E 5.0 mph8.0 kmh 30.09 in1019.0 mb 0.01 in0.3 mm 0.00 in0.0 mm 2.13 in54.1 mm
11:45 PM 73.4°F23.0°C 72.5°F22.5°C 97% 2.0 mph E3.2 kmh E 5.0 mph8.0 kmh 30.10 in1019.3 mb 0.02 in0.5 mm 0.12 in3.0 mm 2.14 in54.4 mm
11:50 PM 73.4°F23.0°C 72.5°F22.5°C 97% 2.2 mph E3.5 kmh E 5.0 mph8.0 kmh 30.10 in1019.3 mb 0.02 in0.5 mm 0.00 in0.0 mm 2.14 in54.4 mm
11:55 PM 73.4°F23.0°C 72.5°F22.5°C 97% 2.8 mph E4.5 kmh E 5.0 mph8.0 kmh 30.10 in1019.3 mb 0.02 in0.5 mm 0.00 in0.0 mm 2.14 in54.4 mm